Decoded Metar for GMMW (ARWI in MOROCCO) (IATA:N/A) | Meteo·Mobile Aviation Weather
aviador You're here:

GMMW Decoded Metar

ARWI in MOROCCO
Report Time2018-12-14 23:00:00
UTC Time2018-12-15 00:05:40
Flight Rules vfr VFR
Wind280° at 13 kt
W.Decomp.*RWY 26: 12.1 kt HW 4.7 kt RCW
W.Rank280° ranks 6
Current wind is above 280° avg. (5.1)
Visibility9999 m
Phenomena:N/A
Clouds:N/A
Expected CloudBase > 2,400 ft AGL from Temp-Dew spread
CeilingNone
Temp11°C (ISA -3)
Dew Point05°C (67% RH)
AAT5.2°C
QNH1026 hPa
Density Alt-85 ft
Elevation574 ft
Report Wrong Elevation
Raw Report
GMMW 142300Z 28013KT CAVOK 11/05 Q1026 NOSIG=

Extra information for GMMW:More info

Metar Taf Metar & Taf Last 4 Metars F.Rules Stats Wind Profile Meteogram Temp Stats Airport Information Weather charts Add Link Nearby VenuesMetar ALERT Operation Metar Decoded Social comments